sensor_id;sensor_type;location;lat;lon;timestamp;P1;durP1;ratioP1;P2;durP2;ratioP2
78322;SDS011;67583;50.616;-3.404;2023-05-29T00:00:18;8.15;;;3.42;;
78322;SDS011;67583;50.616;-3.404;2023-05-29T00:02:45;8.60;;;4.90;;
78322;SDS011;67583;50.616;-3.404;2023-05-29T00:05:14;9.20;;;5.13;;
78322;SDS011;67583;50.616;-3.404;2023-05-29T00:07:40;12.05;;;4.53;;
78322;SDS011;67583;50.616;-3.404;2023-05-29T00:10:06;5.75;;;4.13;;
78322;SDS011;67583;50.616;-3.404;2023-05-29T00:12:32;6.28;;;3.80;;
78322;SDS011;67583;50.616;-3.404;2023-05-29T00:14:58;13.15;;;4.60;;
78322;SDS011;67583;50.616;-3.404;2023-05-29T00:17:23;11.50;;;5.05;;
78322;SDS011;67583;50.616;-3.404;2023-05-29T00:19:49;5.90;;;3.75;;
78322;SDS011;67583;50.616;-3.404;2023-05-29T00:22:15;7.90;;;4.32;;
78322;SDS011;67583;50.616;-3.404;2023-05-29T00:24:40;9.27;;;4.10;;
78322;SDS011;67583;50.616;-3.404;2023-05-29T00:27:06;6.97;;;4.22;;
78322;SDS011;67583;50.616;-3.404;2023-05-29T00:29:31;10.05;;;4.47;;
78322;SDS011;67583;50.616;-3.404;2023-05-29T00:31:57;8.77;;;4.50;;
78322;SDS011;67583;50.616;-3.404;2023-05-29T00:34:23;6.80;;;4.00;;
78322;SDS011;67583;50.616;-3.404;2023-05-29T00:36:48;10.88;;;4.72;;
78322;SDS011;67583;50.616;-3.404;2023-05-29T00:39:14;9.30;;;4.90;;
78322;SDS011;67583;50.616;-3.404;2023-05-29T00:41:40;10.32;;;4.57;;
78322;SDS011;67583;50.616;-3.404;2023-05-29T00:44:05;10.48;;;4.88;;
78322;SDS011;67583;50.616;-3.404;2023-05-29T00:46:31;12.68;;;5.20;;
78322;SDS011;67583;50.616;-3.404;2023-05-29T00:48:57;8.73;;;5.40;;
78322;SDS011;67583;50.616;-3.404;2023-05-29T00:51:22;11.00;;;5.05;;
78322;SDS011;67583;50.616;-3.404;2023-05-29T00:53:49;14.13;;;5.45;;
78322;SDS011;67583;50.616;-3.404;2023-05-29T00:56:15;11.68;;;4.90;;
78322;SDS011;67583;50.616;-3.404;2023-05-29T00:58:42;9.85;;;5.28;;
78322;SDS011;67583;50.616;-3.404;2023-05-29T01:01:08;12.93;;;6.63;;
78322;SDS011;67583;50.616;-3.404;2023-05-29T01:03:33;9.18;;;4.63;;
78322;SDS011;67583;50.616;-3.404;2023-05-29T01:06:00;14.35;;;5.55;;
78322;SDS011;67583;50.616;-3.404;2023-05-29T01:08:26;12.73;;;5.85;;
78322;SDS011;67583;50.616;-3.404;2023-05-29T01:10:51;15.25;;;6.20;;
78322;SDS011;67583;50.616;-3.404;2023-05-29T01:13:23;14.50;;;6.38;;
78322;SDS011;67583;50.616;-3.404;2023-05-29T01:16:09;11.40;;;5.85;;
78322;SDS011;67583;50.616;-3.404;2023-05-29T01:18:43;13.50;;;6.68;;
78322;SDS011;67583;50.616;-3.404;2023-05-29T01:24:02;11.20;;;7.00;;
78322;SDS011;67583;50.616;-3.404;2023-05-29T01:29:00;10.45;;;6.07;;
78322;SDS011;67583;50.616;-3.404;2023-05-29T01:31:27;10.23;;;6.93;;
78322;SDS011;67583;50.616;-3.404;2023-05-29T01:33:54;12.18;;;6.65;;
78322;SDS011;67583;50.616;-3.404;2023-05-29T01:36:23;12.10;;;6.43;;
78322;SDS011;67583;50.616;-3.404;2023-05-29T01:38:49;11.73;;;6.85;;
78322;SDS011;67583;50.616;-3.404;2023-05-29T01:41:16;12.93;;;7.40;;
78322;SDS011;67583;50.616;-3.404;2023-05-29T01:43:45;15.00;;;7.30;;
78322;SDS011;67583;50.616;-3.404;2023-05-29T01:46:12;13.20;;;7.18;;
78322;SDS011;67583;50.616;-3.404;2023-05-29T01:48:38;15.75;;;7.55;;
78322;SDS011;67583;50.616;-3.404;2023-05-29T01:51:08;14.88;;;7.38;;
78322;SDS011;67583;50.616;-3.404;2023-05-29T01:53:36;15.02;;;7.45;;
78322;SDS011;67583;50.616;-3.404;2023-05-29T01:56:02;11.43;;;6.90;;
78322;SDS011;67583;50.616;-3.404;2023-05-29T01:58:28;15.98;;;8.25;;
78322;SDS011;67583;50.616;-3.404;2023-05-29T02:00:54;13.25;;;7.78;;
78322;SDS011;67583;50.616;-3.404;2023-05-29T02:03:20;13.45;;;7.85;;
78322;SDS011;67583;50.616;-3.404;2023-05-29T02:05:46;13.93;;;7.53;;
78322;SDS011;67583;50.616;-3.404;2023-05-29T02:08:11;15.35;;;9.25;;
78322;SDS011;67583;50.616;-3.404;2023-05-29T02:10:37;15.25;;;7.55;;
78322;SDS011;67583;50.616;-3.404;2023-05-29T02:13:03;16.90;;;7.93;;
78322;SDS011;67583;50.616;-3.404;2023-05-29T02:15:28;18.00;;;8.68;;
78322;SDS011;67583;50.616;-3.404;2023-05-29T02:17:54;16.80;;;7.47;;
78322;SDS011;67583;50.616;-3.404;2023-05-29T02:20:20;16.77;;;8.20;;
78322;SDS011;67583;50.616;-3.404;2023-05-29T02:22:45;15.82;;;7.13;;
78322;SDS011;67583;50.616;-3.404;2023-05-29T02:25:11;14.38;;;8.90;;
78322;SDS011;67583;50.616;-3.404;2023-05-29T02:27:36;14.32;;;7.72;;
78322;SDS011;67583;50.616;-3.404;2023-05-29T02:30:02;15.85;;;8.55;;
78322;SDS011;67583;50.616;-3.404;2023-05-29T02:32:27;10.43;;;7.93;;
78322;SDS011;67583;50.616;-3.404;2023-05-29T02:34:54;14.05;;;7.93;;
78322;SDS011;67583;50.616;-3.404;2023-05-29T02:37:19;14.63;;;7.63;;
78322;SDS011;67583;50.616;-3.404;2023-05-29T02:39:45;13.88;;;7.80;;
78322;SDS011;67583;50.616;-3.404;2023-05-29T02:42:11;11.82;;;6.90;;
78322;SDS011;67583;50.616;-3.404;2023-05-29T02:44:36;14.65;;;7.72;;
78322;SDS011;67583;50.616;-3.404;2023-05-29T02:47:01;21.58;;;8.68;;
78322;SDS011;67583;50.616;-3.404;2023-05-29T02:49:27;18.23;;;6.95;;
78322;SDS011;67583;50.616;-3.404;2023-05-29T02:51:52;15.77;;;7.13;;
78322;SDS011;67583;50.616;-3.404;2023-05-29T02:54:25;15.05;;;7.15;;
78322;SDS011;67583;50.616;-3.404;2023-05-29T02:56:50;11.23;;;6.10;;
78322;SDS011;67583;50.616;-3.404;2023-05-29T02:59:16;13.13;;;7.20;;
78322;SDS011;67583;50.616;-3.404;2023-05-29T03:01:42;11.50;;;6.43;;
78322;SDS011;67583;50.616;-3.404;2023-05-29T03:04:08;12.25;;;6.95;;
78322;SDS011;67583;50.616;-3.404;2023-05-29T03:06:34;14.80;;;6.30;;
78322;SDS011;67583;50.616;-3.404;2023-05-29T03:09:01;16.08;;;7.00;;
78322;SDS011;67583;50.616;-3.404;2023-05-29T03:11:27;11.13;;;6.05;;
78322;SDS011;67583;50.616;-3.404;2023-05-29T03:13:54;11.40;;;6.38;;
78322;SDS011;67583;50.616;-3.404;2023-05-29T03:16:19;10.55;;;5.75;;
78322;SDS011;67583;50.616;-3.404;2023-05-29T03:18:46;11.15;;;5.95;;
78322;SDS011;67583;50.616;-3.404;2023-05-29T03:21:11;16.02;;;6.45;;
78322;SDS011;67583;50.616;-3.404;2023-05-29T03:23:37;11.13;;;5.45;;
78322;SDS011;67583;50.616;-3.404;2023-05-29T03:26:02;10.48;;;5.22;;
78322;SDS011;67583;50.616;-3.404;2023-05-29T03:28:28;12.70;;;4.78;;
78322;SDS011;67583;50.616;-3.404;2023-05-29T03:30:54;12.95;;;6.72;;
78322;SDS011;67583;50.616;-3.404;2023-05-29T03:33:19;12.10;;;5.28;;
78322;SDS011;67583;50.616;-3.404;2023-05-29T03:35:45;8.52;;;4.40;;
78322;SDS011;67583;50.616;-3.404;2023-05-29T03:38:11;11.75;;;4.93;;
78322;SDS011;67583;50.616;-3.404;2023-05-29T03:40:36;12.85;;;4.72;;
78322;SDS011;67583;50.616;-3.404;2023-05-29T03:43:02;13.25;;;4.30;;
78322;SDS011;67583;50.616;-3.404;2023-05-29T03:45:27;9.13;;;4.80;;
78322;SDS011;67583;50.616;-3.404;2023-05-29T03:47:53;9.25;;;4.55;;
78322;SDS011;67583;50.616;-3.404;2023-05-29T03:50:18;10.60;;;5.85;;
78322;SDS011;67583;50.616;-3.404;2023-05-29T03:52:44;9.30;;;5.15;;
78322;SDS011;67583;50.616;-3.404;2023-05-29T03:55:10;17.13;;;5.10;;
78322;SDS011;67583;50.616;-3.404;2023-05-29T03:57:39;11.18;;;5.90;;
78322;SDS011;67583;50.616;-3.404;2023-05-29T04:00:06;10.02;;;4.10;;
78322;SDS011;67583;50.616;-3.404;2023-05-29T04:02:33;10.40;;;4.80;;
78322;SDS011;67583;50.616;-3.404;2023-05-29T04:04:58;13.45;;;5.03;;
78322;SDS011;67583;50.616;-3.404;2023-05-29T04:07:23;7.72;;;3.63;;
78322;SDS011;67583;50.616;-3.404;2023-05-29T04:09:49;12.77;;;4.30;;
78322;SDS011;67583;50.616;-3.404;2023-05-29T04:12:15;8.27;;;3.22;;
78322;SDS011;67583;50.616;-3.404;2023-05-29T04:14:41;11.10;;;3.92;;
78322;SDS011;67583;50.616;-3.404;2023-05-29T04:17:07;6.90;;;4.05;;
78322;SDS011;67583;50.616;-3.404;2023-05-29T04:19:32;14.30;;;4.28;;
78322;SDS011;67583;50.616;-3.404;2023-05-29T04:21:57;10.73;;;4.05;;
78322;SDS011;67583;50.616;-3.404;2023-05-29T04:24:23;6.97;;;3.67;;
78322;SDS011;67583;50.616;-3.404;2023-05-29T04:26:50;8.20;;;2.97;;
78322;SDS011;67583;50.616;-3.404;2023-05-29T04:29:25;8.63;;;4.00;;
78322;SDS011;67583;50.616;-3.404;2023-05-29T04:31:51;6.78;;;2.92;;
78322;SDS011;67583;50.616;-3.404;2023-05-29T04:34:17;5.55;;;3.28;;
78322;SDS011;67583;50.616;-3.404;2023-05-29T04:36:42;7.50;;;3.08;;
78322;SDS011;67583;50.616;-3.404;2023-05-29T04:39:08;7.00;;;3.05;;
78322;SDS011;67583;50.616;-3.404;2023-05-29T04:41:34;5.80;;;3.22;;
78322;SDS011;67583;50.616;-3.404;2023-05-29T04:44:00;9.00;;;3.72;;
78322;SDS011;67583;50.616;-3.404;2023-05-29T04:46:26;6.53;;;3.22;;
78322;SDS011;67583;50.616;-3.404;2023-05-29T04:48:52;9.80;;;4.53;;
78322;SDS011;67583;50.616;-3.404;2023-05-29T04:51:21;10.25;;;3.05;;
78322;SDS011;67583;50.616;-3.404;2023-05-29T04:53:47;9.07;;;3.58;;
78322;SDS011;67583;50.616;-3.404;2023-05-29T04:56:14;11.70;;;3.53;;
78322;SDS011;67583;50.616;-3.404;2023-05-29T04:58:40;9.00;;;3.28;;
78322;SDS011;67583;50.616;-3.404;2023-05-29T05:01:06;6.40;;;2.97;;
78322;SDS011;67583;50.616;-3.404;2023-05-29T05:03:33;7.70;;;2.88;;
78322;SDS011;67583;50.616;-3.404;2023-05-29T05:05:59;6.18;;;2.90;;
78322;SDS011;67583;50.616;-3.404;2023-05-29T05:08:28;12.43;;;4.55;;
78322;SDS011;67583;50.616;-3.404;2023-05-29T05:10:54;6.88;;;2.92;;
78322;SDS011;67583;50.616;-3.404;2023-05-29T05:13:20;8.98;;;3.22;;
78322;SDS011;67583;50.616;-3.404;2023-05-29T05:15:46;6.65;;;3.30;;
78322;SDS011;67583;50.616;-3.404;2023-05-29T05:18:11;7.35;;;3.53;;
78322;SDS011;67583;50.616;-3.404;2023-05-29T05:20:37;10.80;;;3.45;;
78322;SDS011;67583;50.616;-3.404;2023-05-29T05:23:02;9.48;;;3.90;;
78322;SDS011;67583;50.616;-3.404;2023-05-29T05:25:27;6.38;;;2.80;;
78322;SDS011;67583;50.616;-3.404;2023-05-29T05:27:54;7.72;;;3.00;;
78322;SDS011;67583;50.616;-3.404;2023-05-29T05:30:19;8.82;;;2.95;;
78322;SDS011;67583;50.616;-3.404;2023-05-29T05:32:45;7.28;;;2.92;;
78322;SDS011;67583;50.616;-3.404;2023-05-29T05:35:10;7.30;;;3.33;;
78322;SDS011;67583;50.616;-3.404;2023-05-29T05:37:36;6.90;;;2.78;;
78322;SDS011;67583;50.616;-3.404;2023-05-29T05:40:02;4.88;;;3.33;;
78322;SDS011;67583;50.616;-3.404;2023-05-29T05:42:28;8.63;;;2.90;;
78322;SDS011;67583;50.616;-3.404;2023-05-29T05:44:54;8.75;;;3.60;;
78322;SDS011;67583;50.616;-3.404;2023-05-29T05:47:19;5.85;;;2.75;;
78322;SDS011;67583;50.616;-3.404;2023-05-29T05:49:45;7.20;;;3.47;;
78322;SDS011;67583;50.616;-3.404;2023-05-29T05:52:10;7.55;;;3.20;;
78322;SDS011;67583;50.616;-3.404;2023-05-29T05:54:35;7.38;;;3.08;;
78322;SDS011;67583;50.616;-3.404;2023-05-29T05:57:03;10.00;;;3.40;;
78322;SDS011;67583;50.616;-3.404;2023-05-29T05:59:29;8.43;;;2.88;;
78322;SDS011;67583;50.616;-3.404;2023-05-29T06:01:54;8.98;;;2.63;;
78322;SDS011;67583;50.616;-3.404;2023-05-29T06:04:20;5.93;;;2.75;;
78322;SDS011;67583;50.616;-3.404;2023-05-29T06:06:45;7.20;;;3.55;;
78322;SDS011;67583;50.616;-3.404;2023-05-29T06:09:11;9.70;;;2.78;;
78322;SDS011;67583;50.616;-3.404;2023-05-29T06:11:36;5.88;;;2.22;;
78322;SDS011;67583;50.616;-3.404;2023-05-29T06:14:02;9.77;;;2.88;;
78322;SDS011;67583;50.616;-3.404;2023-05-29T06:16:28;8.23;;;2.80;;
78322;SDS011;67583;50.616;-3.404;2023-05-29T06:18:54;7.78;;;2.70;;
78322;SDS011;67583;50.616;-3.404;2023-05-29T06:21:19;10.77;;;3.42;;
78322;SDS011;67583;50.616;-3.404;2023-05-29T06:23:45;6.28;;;2.72;;
78322;SDS011;67583;50.616;-3.404;2023-05-29T06:26:11;10.73;;;2.70;;
78322;SDS011;67583;50.616;-3.404;2023-05-29T06:28:37;13.30;;;3.03;;
78322;SDS011;67583;50.616;-3.404;2023-05-29T06:31:02;11.10;;;2.70;;
78322;SDS011;67583;50.616;-3.404;2023-05-29T06:33:28;5.47;;;2.30;;
78322;SDS011;67583;50.616;-3.404;2023-05-29T06:35:54;7.85;;;2.58;;
78322;SDS011;67583;50.616;-3.404;2023-05-29T06:38:20;7.55;;;2.78;;
78322;SDS011;67583;50.616;-3.404;2023-05-29T06:40:45;8.32;;;2.72;;
78322;SDS011;67583;50.616;-3.404;2023-05-29T06:43:11;10.30;;;3.15;;
78322;SDS011;67583;50.616;-3.404;2023-05-29T06:45:36;10.02;;;2.67;;
78322;SDS011;67583;50.616;-3.404;2023-05-29T06:48:02;6.60;;;2.85;;
78322;SDS011;67583;50.616;-3.404;2023-05-29T06:50:27;9.25;;;3.58;;
78322;SDS011;67583;50.616;-3.404;2023-05-29T06:52:52;9.43;;;2.97;;
78322;SDS011;67583;50.616;-3.404;2023-05-29T06:55:19;10.68;;;2.72;;
78322;SDS011;67583;50.616;-3.404;2023-05-29T06:57:44;7.35;;;2.30;;
78322;SDS011;67583;50.616;-3.404;2023-05-29T07:00:10;5.68;;;2.47;;
78322;SDS011;67583;50.616;-3.404;2023-05-29T07:02:36;9.60;;;2.60;;
78322;SDS011;67583;50.616;-3.404;2023-05-29T07:05:02;10.48;;;2.63;;
78322;SDS011;67583;50.616;-3.404;2023-05-29T07:07:27;4.82;;;2.40;;
78322;SDS011;67583;50.616;-3.404;2023-05-29T07:09:53;9.80;;;2.95;;
78322;SDS011;67583;50.616;-3.404;2023-05-29T07:12:18;5.97;;;2.45;;
78322;SDS011;67583;50.616;-3.404;2023-05-29T07:14:44;11.07;;;3.42;;
78322;SDS011;67583;50.616;-3.404;2023-05-29T07:17:13;5.28;;;3.00;;
78322;SDS011;67583;50.616;-3.404;2023-05-29T07:19:38;6.15;;;2.30;;
78322;SDS011;67583;50.616;-3.404;2023-05-29T07:22:04;9.38;;;3.20;;
78322;SDS011;67583;50.616;-3.404;2023-05-29T07:24:29;7.03;;;2.92;;
78322;SDS011;67583;50.616;-3.404;2023-05-29T07:26:55;5.50;;;2.30;;
78322;SDS011;67583;50.616;-3.404;2023-05-29T07:29:20;7.05;;;2.10;;
78322;SDS011;67583;50.616;-3.404;2023-05-29T07:31:48;5.07;;;2.55;;
78322;SDS011;67583;50.616;-3.404;2023-05-29T07:34:14;8.45;;;2.83;;
78322;SDS011;67583;50.616;-3.404;2023-05-29T07:36:55;6.68;;;2.40;;
78322;SDS011;67583;50.616;-3.404;2023-05-29T07:39:22;5.57;;;2.33;;
78322;SDS011;67583;50.616;-3.404;2023-05-29T07:41:47;6.68;;;2.45;;
78322;SDS011;67583;50.616;-3.404;2023-05-29T07:44:12;7.93;;;2.60;;
78322;SDS011;67583;50.616;-3.404;2023-05-29T07:46:38;6.65;;;2.45;;
78322;SDS011;67583;50.616;-3.404;2023-05-29T07:49:03;7.63;;;2.78;;
78322;SDS011;67583;50.616;-3.404;2023-05-29T07:51:29;6.70;;;2.72;;
78322;SDS011;67583;50.616;-3.404;2023-05-29T07:53:54;7.30;;;2.83;;
78322;SDS011;67583;50.616;-3.404;2023-05-29T07:56:19;8.95;;;3.00;;
78322;SDS011;67583;50.616;-3.404;2023-05-29T07:58:45;8.60;;;2.97;;
78322;SDS011;67583;50.616;-3.404;2023-05-29T08:01:11;6.60;;;2.55;;
78322;SDS011;67583;50.616;-3.404;2023-05-29T08:03:37;6.35;;;2.63;;
78322;SDS011;67583;50.616;-3.404;2023-05-29T08:06:02;9.82;;;2.60;;
78322;SDS011;67583;50.616;-3.404;2023-05-29T08:08:28;9.70;;;2.90;;
78322;SDS011;67583;50.616;-3.404;2023-05-29T08:10:53;8.18;;;2.92;;
78322;SDS011;67583;50.616;-3.404;2023-05-29T08:13:19;7.38;;;2.80;;
78322;SDS011;67583;50.616;-3.404;2023-05-29T08:15:44;7.80;;;2.38;;
78322;SDS011;67583;50.616;-3.404;2023-05-29T08:18:10;6.78;;;3.75;;
78322;SDS011;67583;50.616;-3.404;2023-05-29T08:20:36;6.95;;;2.70;;
78322;SDS011;67583;50.616;-3.404;2023-05-29T08:23:01;5.90;;;2.65;;
78322;SDS011;67583;50.616;-3.404;2023-05-29T08:25:26;5.00;;;2.50;;
78322;SDS011;67583;50.616;-3.404;2023-05-29T08:27:52;7.63;;;2.50;;
78322;SDS011;67583;50.616;-3.404;2023-05-29T08:30:17;8.82;;;3.10;;
78322;SDS011;67583;50.616;-3.404;2023-05-29T08:32:43;6.55;;;2.17;;
78322;SDS011;67583;50.616;-3.404;2023-05-29T08:35:09;7.07;;;2.22;;
78322;SDS011;67583;50.616;-3.404;2023-05-29T08:37:34;8.23;;;3.10;;
78322;SDS011;67583;50.616;-3.404;2023-05-29T08:40:00;8.40;;;2.53;;
78322;SDS011;67583;50.616;-3.404;2023-05-29T08:42:29;4.88;;;2.28;;
78322;SDS011;67583;50.616;-3.404;2023-05-29T08:44:58;5.63;;;2.10;;
78322;SDS011;67583;50.616;-3.404;2023-05-29T08:47:27;6.47;;;2.55;;
78322;SDS011;67583;50.616;-3.404;2023-05-29T08:49:57;5.30;;;2.10;;
78322;SDS011;67583;50.616;-3.404;2023-05-29T08:52:25;8.00;;;2.33;;
78322;SDS011;67583;50.616;-3.404;2023-05-29T08:54:54;7.75;;;2.35;;
78322;SDS011;67583;50.616;-3.404;2023-05-29T08:57:20;5.70;;;2.67;;
78322;SDS011;67583;50.616;-3.404;2023-05-29T08:59:46;8.55;;;2.83;;
78322;SDS011;67583;50.616;-3.404;2023-05-29T09:02:14;7.18;;;1.98;;
78322;SDS011;67583;50.616;-3.404;2023-05-29T09:04:43;7.15;;;2.63;;
78322;SDS011;67583;50.616;-3.404;2023-05-29T09:07:17;7.53;;;2.35;;
78322;SDS011;67583;50.616;-3.404;2023-05-29T09:09:47;6.95;;;2.70;;
78322;SDS011;67583;50.616;-3.404;2023-05-29T09:12:13;10.10;;;2.83;;
78322;SDS011;67583;50.616;-3.404;2023-05-29T09:14:40;4.22;;;2.38;;
78322;SDS011;67583;50.616;-3.404;2023-05-29T09:17:07;8.95;;;2.65;;
78322;SDS011;67583;50.616;-3.404;2023-05-29T09:19:33;6.93;;;2.53;;
78322;SDS011;67583;50.616;-3.404;2023-05-29T09:22:00;8.68;;;2.65;;
78322;SDS011;67583;50.616;-3.404;2023-05-29T09:24:29;7.88;;;2.53;;
78322;SDS011;67583;50.616;-3.404;2023-05-29T09:26:55;5.75;;;2.50;;
78322;SDS011;67583;50.616;-3.404;2023-05-29T09:29:21;8.60;;;3.05;;
78322;SDS011;67583;50.616;-3.404;2023-05-29T09:31:47;7.57;;;2.78;;
78322;SDS011;67583;50.616;-3.404;2023-05-29T09:34:13;6.10;;;2.53;;
78322;SDS011;67583;50.616;-3.404;2023-05-29T09:36:38;6.57;;;2.58;;
78322;SDS011;67583;50.616;-3.404;2023-05-29T09:39:03;8.25;;;2.83;;
78322;SDS011;67583;50.616;-3.404;2023-05-29T09:41:29;7.35;;;2.35;;
78322;SDS011;67583;50.616;-3.404;2023-05-29T09:43:56;6.78;;;2.30;;
78322;SDS011;67583;50.616;-3.404;2023-05-29T09:46:21;8.23;;;2.92;;
78322;SDS011;67583;50.616;-3.404;2023-05-29T09:48:47;6.25;;;2.45;;
78322;SDS011;67583;50.616;-3.404;2023-05-29T09:51:22;6.35;;;2.53;;
78322;SDS011;67583;50.616;-3.404;2023-05-29T09:53:49;7.47;;;3.22;;
78322;SDS011;67583;50.616;-3.404;2023-05-29T09:56:18;6.18;;;2.45;;
78322;SDS011;67583;50.616;-3.404;2023-05-29T09:58:48;9.60;;;2.90;;
78322;SDS011;67583;50.616;-3.404;2023-05-29T10:01:14;7.25;;;2.60;;
78322;SDS011;67583;50.616;-3.404;2023-05-29T10:03:42;11.13;;;3.03;;
78322;SDS011;67583;50.616;-3.404;2023-05-29T10:06:10;5.20;;;2.45;;
78322;SDS011;67583;50.616;-3.404;2023-05-29T10:08:42;7.18;;;2.80;;
78322;SDS011;67583;50.616;-3.404;2023-05-29T10:11:13;8.20;;;2.85;;
78322;SDS011;67583;50.616;-3.404;2023-05-29T10:13:41;6.05;;;3.22;;
78322;SDS011;67583;50.616;-3.404;2023-05-29T10:16:11;11.02;;;3.47;;
78322;SDS011;67583;50.616;-3.404;2023-05-29T10:18:42;7.63;;;2.47;;
78322;SDS011;67583;50.616;-3.404;2023-05-29T10:21:08;9.50;;;2.63;;
78322;SDS011;67583;50.616;-3.404;2023-05-29T10:23:37;5.82;;;2.78;;
78322;SDS011;67583;50.616;-3.404;2023-05-29T10:26:07;5.63;;;3.42;;
78322;SDS011;67583;50.616;-3.404;2023-05-29T10:28:39;10.25;;;3.88;;
78322;SDS011;67583;50.616;-3.404;2023-05-29T10:31:09;7.00;;;2.88;;
78322;SDS011;67583;50.616;-3.404;2023-05-29T10:33:37;7.40;;;2.53;;
78322;SDS011;67583;50.616;-3.404;2023-05-29T10:36:22;7.82;;;2.97;;
78322;SDS011;67583;50.616;-3.404;2023-05-29T10:38:49;9.93;;;2.53;;
78322;SDS011;67583;50.616;-3.404;2023-05-29T10:43:51;5.63;;;2.67;;
78322;SDS011;67583;50.616;-3.404;2023-05-29T10:46:18;6.75;;;2.95;;
78322;SDS011;67583;50.616;-3.404;2023-05-29T10:48:44;8.52;;;2.40;;
78322;SDS011;67583;50.616;-3.404;2023-05-29T10:51:23;6.65;;;2.60;;
78322;SDS011;67583;50.616;-3.404;2023-05-29T10:53:52;14.65;;;5.03;;
78322;SDS011;67583;50.616;-3.404;2023-05-29T10:56:21;15.50;;;5.18;;
78322;SDS011;67583;50.616;-3.404;2023-05-29T10:58:52;10.00;;;2.95;;
78322;SDS011;67583;50.616;-3.404;2023-05-29T11:01:23;9.10;;;3.03;;
78322;SDS011;67583;50.616;-3.404;2023-05-29T11:03:53;8.00;;;2.70;;
78322;SDS011;67583;50.616;-3.404;2023-05-29T11:06:20;4.78;;;2.50;;
78322;SDS011;67583;50.616;-3.404;2023-05-29T11:08:55;5.15;;;2.90;;
78322;SDS011;67583;50.616;-3.404;2023-05-29T11:13:53;4.22;;;2.20;;
78322;SDS011;67583;50.616;-3.404;2023-05-29T11:18:45;6.50;;;2.30;;
78322;SDS011;67583;50.616;-3.404;2023-05-29T11:23:57;5.40;;;2.42;;
78322;SDS011;67583;50.616;-3.404;2023-05-29T11:26:26;6.80;;;2.88;;
78322;SDS011;67583;50.616;-3.404;2023-05-29T11:28:52;8.68;;;2.55;;
78322;SDS011;67583;50.616;-3.404;2023-05-29T11:31:17;7.97;;;3.10;;
78322;SDS011;67583;50.616;-3.404;2023-05-29T11:33:47;6.93;;;2.55;;
78322;SDS011;67583;50.616;-3.404;2023-05-29T11:36:13;6.43;;;2.42;;
78322;SDS011;67583;50.616;-3.404;2023-05-29T11:38:39;6.68;;;3.45;;
78322;SDS011;67583;50.616;-3.404;2023-05-29T11:41:05;7.18;;;2.55;;
78322;SDS011;67583;50.616;-3.404;2023-05-29T11:43:30;4.25;;;2.05;;
78322;SDS011;67583;50.616;-3.404;2023-05-29T11:45:56;9.32;;;2.85;;
78322;SDS011;67583;50.616;-3.404;2023-05-29T11:48:21;5.53;;;2.65;;
78322;SDS011;67583;50.616;-3.404;2023-05-29T11:50:48;7.75;;;2.47;;
78322;SDS011;67583;50.616;-3.404;2023-05-29T11:53:13;7.15;;;2.70;;
78322;SDS011;67583;50.616;-3.404;2023-05-29T11:55:39;6.35;;;2.40;;
78322;SDS011;67583;50.616;-3.404;2023-05-29T11:58:04;4.70;;;2.40;;
78322;SDS011;67583;50.616;-3.404;2023-05-29T12:00:31;6.00;;;2.45;;
78322;SDS011;67583;50.616;-3.404;2023-05-29T12:03:01;4.85;;;2.45;;
78322;SDS011;67583;50.616;-3.404;2023-05-29T12:05:28;5.00;;;2.90;;
78322;SDS011;67583;50.616;-3.404;2023-05-29T12:07:55;6.70;;;2.90;;
78322;SDS011;67583;50.616;-3.404;2023-05-29T12:10:27;6.07;;;2.65;;
78322;SDS011;67583;50.616;-3.404;2023-05-29T12:12:53;7.60;;;2.40;;
78322;SDS011;67583;50.616;-3.404;2023-05-29T12:15:20;5.57;;;2.60;;
78322;SDS011;67583;50.616;-3.404;2023-05-29T12:17:47;6.82;;;2.40;;
78322;SDS011;67583;50.616;-3.404;2023-05-29T12:20:13;7.00;;;2.67;;
78322;SDS011;67583;50.616;-3.404;2023-05-29T12:22:39;5.18;;;2.17;;
78322;SDS011;67583;50.616;-3.404;2023-05-29T12:25:24;9.63;;;2.83;;
78322;SDS011;67583;50.616;-3.404;2023-05-29T12:27:50;5.60;;;2.50;;
78322;SDS011;67583;50.616;-3.404;2023-05-29T12:32:48;6.57;;;2.78;;
78322;SDS011;67583;50.616;-3.404;2023-05-29T12:35:16;5.13;;;2.30;;
78322;SDS011;67583;50.616;-3.404;2023-05-29T12:40:17;5.60;;;2.38;;
78322;SDS011;67583;50.616;-3.404;2023-05-29T12:42:56;8.48;;;2.20;;
78322;SDS011;67583;50.616;-3.404;2023-05-29T12:45:27;5.75;;;2.55;;
78322;SDS011;67583;50.616;-3.404;2023-05-29T12:47:53;6.20;;;2.30;;
78322;SDS011;67583;50.616;-3.404;2023-05-29T12:50:33;5.63;;;2.60;;
78322;SDS011;67583;50.616;-3.404;2023-05-29T12:53:03;6.20;;;2.20;;
78322;SDS011;67583;50.616;-3.404;2023-05-29T12:55:39;5.88;;;2.00;;
78322;SDS011;67583;50.616;-3.404;2023-05-29T12:58:06;7.90;;;2.97;;
78322;SDS011;67583;50.616;-3.404;2023-05-29T13:00:39;4.55;;;2.35;;
78322;SDS011;67583;50.616;-3.404;2023-05-29T13:03:06;4.80;;;2.05;;
78322;SDS011;67583;50.616;-3.404;2023-05-29T13:05:32;5.53;;;2.50;;
78322;SDS011;67583;50.616;-3.404;2023-05-29T13:07:57;8.02;;;2.42;;
78322;SDS011;67583;50.616;-3.404;2023-05-29T13:10:23;10.32;;;2.63;;
78322;SDS011;67583;50.616;-3.404;2023-05-29T13:12:49;8.15;;;2.53;;
78322;SDS011;67583;50.616;-3.404;2023-05-29T13:15:19;5.03;;;2.40;;
78322;SDS011;67583;50.616;-3.404;2023-05-29T13:17:44;7.55;;;2.50;;
78322;SDS011;67583;50.616;-3.404;2023-05-29T13:20:10;8.45;;;3.55;;
78322;SDS011;67583;50.616;-3.404;2023-05-29T13:22:40;11.38;;;2.60;;
78322;SDS011;67583;50.616;-3.404;2023-05-29T13:25:07;5.18;;;2.50;;
78322;SDS011;67583;50.616;-3.404;2023-05-29T13:27:34;6.28;;;2.25;;
78322;SDS011;67583;50.616;-3.404;2023-05-29T13:30:04;7.15;;;2.50;;
78322;SDS011;67583;50.616;-3.404;2023-05-29T13:32:30;7.10;;;2.30;;
78322;SDS011;67583;50.616;-3.404;2023-05-29T13:34:56;4.90;;;2.33;;
78322;SDS011;67583;50.616;-3.404;2023-05-29T13:37:21;6.18;;;2.40;;
78322;SDS011;67583;50.616;-3.404;2023-05-29T13:39:47;8.40;;;2.90;;
78322;SDS011;67583;50.616;-3.404;2023-05-29T13:42:12;6.53;;;3.13;;
78322;SDS011;67583;50.616;-3.404;2023-05-29T13:44:38;5.82;;;2.47;;
78322;SDS011;67583;50.616;-3.404;2023-05-29T13:47:05;7.25;;;2.38;;
78322;SDS011;67583;50.616;-3.404;2023-05-29T13:49:30;5.50;;;2.10;;
78322;SDS011;67583;50.616;-3.404;2023-05-29T13:51:56;5.30;;;2.40;;
78322;SDS011;67583;50.616;-3.404;2023-05-29T13:54:21;6.25;;;2.70;;
78322;SDS011;67583;50.616;-3.404;2023-05-29T13:56:47;4.82;;;2.20;;
78322;SDS011;67583;50.616;-3.404;2023-05-29T13:59:13;5.70;;;2.20;;
78322;SDS011;67583;50.616;-3.404;2023-05-29T14:01:40;5.03;;;2.10;;
78322;SDS011;67583;50.616;-3.404;2023-05-29T14:04:05;6.55;;;2.80;;
78322;SDS011;67583;50.616;-3.404;2023-05-29T14:06:30;4.18;;;2.33;;
78322;SDS011;67583;50.616;-3.404;2023-05-29T14:08:57;6.60;;;2.17;;
78322;SDS011;67583;50.616;-3.404;2023-05-29T14:11:22;5.97;;;2.33;;
78322;SDS011;67583;50.616;-3.404;2023-05-29T14:13:48;9.43;;;2.70;;
78322;SDS011;67583;50.616;-3.404;2023-05-29T14:16:13;6.53;;;2.00;;
78322;SDS011;67583;50.616;-3.404;2023-05-29T14:18:40;8.38;;;3.00;;
78322;SDS011;67583;50.616;-3.404;2023-05-29T14:21:06;4.53;;;2.22;;
78322;SDS011;67583;50.616;-3.404;2023-05-29T14:23:32;4.40;;;2.22;;
78322;SDS011;67583;50.616;-3.404;2023-05-29T14:25:59;4.88;;;2.33;;
78322;SDS011;67583;50.616;-3.404;2023-05-29T14:28:25;6.45;;;2.45;;
78322;SDS011;67583;50.616;-3.404;2023-05-29T14:30:50;4.93;;;2.17;;
78322;SDS011;67583;50.616;-3.404;2023-05-29T14:33:15;5.95;;;2.40;;
78322;SDS011;67583;50.616;-3.404;2023-05-29T14:35:41;4.85;;;2.05;;
78322;SDS011;67583;50.616;-3.404;2023-05-29T14:38:06;5.45;;;2.28;;
78322;SDS011;67583;50.616;-3.404;2023-05-29T14:40:31;4.38;;;2.25;;
78322;SDS011;67583;50.616;-3.404;2023-05-29T14:42:59;5.68;;;2.00;;
78322;SDS011;67583;50.616;-3.404;2023-05-29T14:45:24;12.43;;;2.83;;
78322;SDS011;67583;50.616;-3.404;2023-05-29T14:47:50;7.00;;;2.28;;